Aviation Digital Data Service (ADDS)

Output produced by TAFs form (1951 UTC 28 April 2017)
found at http://aviationweather.gov/adds/tafs/
 
KCNY 281740Z 2818/2918 28015G21KT P6SM VCSH SCT050 BKN080 
     TEMPO 2818/2822 VRB20G30KT -SHRA BKN060 
     FM282200 32013G21KT P6SM VCSH BKN120 
     FM290500 02011KT P6SM VCSH BKN100 
     FM291500 02012KT P6SM BKN090